Time;durP1;ratioP1;P1;durP2;ratioP2;P2;SDS_P1;SDS_P2;PMS_P1;PMS_P2;Temp;Humidity;BMP_temperature;BMP_pressure;BME280_temperature;BME280_humidity;BME280_pressure;Samples;Min_cycle;Max_cycle;Signal;HPM_P1;HPM_P2
2022/11/15 00:01:54;;;;;;;23.48;14.10;;;8.50;99.90;;;;;;5156418;27;20042;-70
2022/11/15 00:04:20;;;;;;;21.02;13.43;;;8.50;99.90;;;;;;5156410;27;20474;-70
2022/11/15 00:06:45;;;;;;;22.13;13.63;;;8.60;99.90;;;;;;5138028;27;20096;-70
2022/11/15 00:09:11;;;;;;;22.60;14.25;;;8.40;99.90;;;;;;5156644;27;20532;-70
2022/11/15 00:11:37;;;;;;;22.83;14.05;;;8.40;99.90;;;;;;5156201;27;20477;-70
2022/11/15 00:14:03;;;;;;;22.17;14.18;;;8.30;99.90;;;;;;5137896;27;20043;-70
2022/11/15 00:16:28;;;;;;;20.52;13.52;;;8.30;99.90;;;;;;5137218;27;20051;-70
2022/11/15 00:18:54;;;;;;;20.63;12.80;;;8.80;99.90;;;;;;5137925;27;20579;-70
2022/11/15 00:21:20;;;;;;;19.48;13.63;;;8.60;99.90;;;;;;5155995;27;20042;-70
2022/11/15 00:23:46;;;;;;;21.48;13.38;;;8.70;99.90;;;;;;5156287;27;20066;-70
2022/11/15 00:26:14;;;;;;;20.10;12.88;;;8.30;99.90;;;;;;5137463;27;20134;-70
2022/11/15 00:28:40;;;;;;;18.95;13.00;;;8.20;99.90;;;;;;5137616;27;20070;-70
2022/11/15 00:31:08;;;;;;;19.58;13.07;;;8.30;99.90;;;;;;5155858;27;20046;-70
2022/11/15 00:33:34;;;;;;;17.75;12.50;;;8.10;99.90;;;;;;5155829;27;20111;-70
2022/11/15 00:36:02;;;;;;;19.00;13.15;;;8.10;99.90;;;;;;5155479;27;20050;-70
2022/11/15 00:38:35;;;;;;;21.88;13.52;;;8.30;99.90;;;;;;5155775;27;20054;-70
2022/11/15 00:41:02;;;;;;;19.40;12.65;;;8.90;99.90;;;;;;5156476;27;20056;-70
2022/11/15 00:43:28;;;;;;;19.20;12.80;;;8.40;99.90;;;;;;5155755;27;20046;-70
2022/11/15 00:45:54;;;;;;;20.15;13.20;;;8.10;99.90;;;;;;5156016;27;20039;-70
2022/11/15 00:48:20;;;;;;;18.00;12.70;;;8.30;99.90;;;;;;5155052;27;20252;-70
2022/11/15 00:50:45;;;;;;;19.52;13.25;;;8.10;99.90;;;;;;5120322;27;20050;-70
2022/11/15 00:53:12;;;;;;;21.50;13.57;;;8.70;99.90;;;;;;5155476;27;20042;-70
2022/11/15 00:55:37;;;;;;;18.05;12.52;;;8.40;99.90;;;;;;5155514;27;20194;-71
2022/11/15 00:58:03;;;;;;;19.73;13.30;;;7.70;99.90;;;;;;5155738;27;20532;-70
2022/11/15 01:00:29;;;;;;;19.42;12.75;;;7.90;99.90;;;;;;5155683;27;20046;-71
2022/11/15 01:02:55;;;;;;;17.45;11.43;;;8.60;99.90;;;;;;5155329;27;20385;-70
2022/11/15 01:05:21;;;;;;;20.60;12.10;;;8.10;99.90;;;;;;5155160;27;20050;-70
2022/11/15 01:07:46;;;;;;;17.40;11.95;;;8.20;99.90;;;;;;5137061;27;20058;-70
2022/11/15 01:10:12;;;;;;;18.90;11.15;;;7.70;99.90;;;;;;5136846;27;20047;-70
2022/11/15 01:12:38;;;;;;;19.00;12.63;;;8.00;99.90;;;;;;5136709;27;20070;-70
2022/11/15 01:15:05;;;;;;;17.48;11.98;;;8.10;99.90;;;;;;5136727;27;20046;-70
2022/11/15 01:17:31;;;;;;;17.83;10.98;;;7.70;99.90;;;;;;5154609;27;20051;-70
2022/11/15 01:19:57;;;;;;;17.70;12.05;;;8.10;99.90;;;;;;5155199;27;20099;-70
2022/11/15 01:22:23;;;;;;;18.05;11.75;;;7.70;99.90;;;;;;5155675;27;20047;-70
2022/11/15 01:24:51;;;;;;;16.08;10.85;;;8.30;99.90;;;;;;5155127;27;20115;-70
2022/11/15 01:27:17;;;;;;;17.40;11.45;;;7.90;99.90;;;;;;5119711;27;20389;-70
2022/11/15 01:29:43;;;;;;;17.02;11.65;;;8.30;99.90;;;;;;5137775;27;20039;-70
2022/11/15 01:32:08;;;;;;;17.05;12.15;;;8.20;99.90;;;;;;5136939;27;20054;-70
2022/11/15 01:34:34;;;;;;;20.88;13.38;;;7.70;99.90;;;;;;5136778;27;20050;-70
2022/11/15 01:37:00;;;;;;;21.80;13.52;;;7.90;99.90;;;;;;5154681;27;20058;-70
2022/11/15 01:39:26;;;;;;;21.80;13.85;;;8.60;99.90;;;;;;5154795;27;20393;-70
2022/11/15 01:41:52;;;;;;;21.73;14.50;;;8.20;99.90;;;;;;5136935;27;20046;-70
2022/11/15 01:44:36;;;;;;;19.58;13.40;;;8.10;99.90;;;;;;5155029;27;20046;-70
2022/11/15 01:47:06;;;;;;;22.75;14.07;;;8.30;99.90;;;;;;5154455;27;20038;-70
2022/11/15 01:49:34;;;;;;;19.65;13.77;;;7.90;99.90;;;;;;5154918;27;20043;-70
2022/11/15 01:52:04;;;;;;;19.30;13.75;;;8.20;99.90;;;;;;5154642;27;20486;-70
2022/11/15 01:54:30;;;;;;;20.52;12.43;;;7.90;99.90;;;;;;5154623;27;20577;-70
2022/11/15 01:57:01;;;;;;;21.70;14.05;;;8.00;99.90;;;;;;5119385;27;20428;-70
2022/11/15 01:59:27;;;;;;;22.38;15.07;;;7.90;99.90;;;;;;5155469;27;20045;-70
2022/11/15 02:01:53;;;;;;;22.02;14.35;;;7.90;99.90;;;;;;5154994;27;20055;-70
2022/11/15 02:04:40;;;;;;;18.88;13.18;;;7.90;99.90;;;;;;5154797;27;20062;-70
2022/11/15 02:07:08;;;;;;;21.35;13.45;;;8.20;99.90;;;;;;5119216;27;20074;-70
2022/11/15 02:09:36;;;;;;;20.13;13.35;;;8.10;99.90;;;;;;5154817;27;20042;-70
2022/11/15 02:12:02;;;;;;;19.88;13.70;;;8.00;99.90;;;;;;5155214;27;20047;-70
2022/11/15 02:14:29;;;;;;;22.65;14.30;;;8.10;99.90;;;;;;5154779;27;20069;-70
2022/11/15 02:17:13;;;;;;;21.63;13.50;;;8.00;99.90;;;;;;5155650;27;20500;-70
2022/11/15 02:20:11;;;;;;;20.38;13.10;;;8.10;99.90;;;;;;5140124;27;20051;-70
2022/11/15 02:22:43;;;;;;;19.23;12.38;;;8.00;99.90;;;;;;5140583;27;20050;-70
2022/11/15 02:25:37;;;;;;;21.48;13.27;;;8.60;99.90;;;;;;5158269;27;20038;-70
2022/11/15 02:28:36;;;;;;;19.95;13.07;;;8.20;99.90;;;;;;5140416;27;20050;-70
2022/11/15 02:31:05;;;;;;;19.15;11.93;;;8.20;99.90;;;;;;5148959;27;20066;-70
2022/11/15 02:33:54;;;;;;;19.30;11.68;;;8.20;99.90;;;;;;5158125;27;20079;-70
2022/11/15 02:36:33;;;;;;;21.35;13.18;;;8.30;99.90;;;;;;5139532;27;20378;-69
2022/11/15 02:39:33;;;;;;;20.48;12.13;;;8.10;99.90;;;;;;5158424;27;20046;-70
2022/11/15 02:43:56;;;;;;;20.23;12.45;;;8.20;99.90;;;;;;5158020;27;20098;-69
2022/11/15 02:44:57;;;;;;;21.75;13.05;;;8.20;99.90;;;;;;5157612;27;20449;-70
2022/11/15 02:47:24;;;;;;;20.88;12.77;;;8.50;99.90;;;;;;5139134;27;20046;-70
2022/11/15 02:49:57;;;;;;;21.23;12.35;;;8.70;99.90;;;;;;5139452;27;20058;-70
2022/11/15 02:52:27;;;;;;;20.27;11.75;;;8.70;99.90;;;;;;5158193;27;20176;-69
2022/11/15 02:54:55;;;;;;;20.67;12.77;;;8.20;99.90;;;;;;5158131;27;20182;-70
2022/11/15 02:57:38;;;;;;;20.75;13.23;;;8.50;99.90;;;;;;5157661;27;20074;-70
2022/11/15 03:00:07;;;;;;;20.08;13.15;;;8.30;99.90;;;;;;5157745;27;20043;-70
2022/11/15 03:02:53;;;;;;;17.83;11.65;;;8.30;99.90;;;;;;5157570;27;20054;-70
2022/11/15 03:05:49;;;;;;;19.20;11.80;;;8.30;99.90;;;;;;5157873;27;20394;-70
2022/11/15 03:08:17;;;;;;;23.55;13.00;;;8.30;99.90;;;;;;5158004;27;20394;-70
2022/11/15 03:11:01;;;;;;;18.25;12.30;;;8.40;99.90;;;;;;5139362;27;20063;-70
2022/11/15 03:13:42;;;;;;;19.35;11.80;;;8.50;99.90;;;;;;5157682;27;20050;-70
2022/11/15 03:16:18;;;;;;;19.73;12.23;;;8.30;99.90;;;;;;5157401;27;20162;-69
2022/11/15 03:18:51;;;;;;;20.95;11.73;;;8.60;99.90;;;;;;5139288;27;20053;-70
2022/11/15 03:21:19;;;;;;;21.65;12.38;;;9.00;99.90;;;;;;5122553;27;20055;-70
2022/11/15 03:23:48;;;;;;;20.38;11.93;;;8.60;99.90;;;;;;5156831;27;20489;-70
2022/11/15 03:26:15;;;;;;;18.50;11.35;;;8.40;99.90;;;;;;5138875;27;20059;-70
2022/11/15 03:28:53;;;;;;;20.13;12.70;;;8.40;99.90;;;;;;5157060;27;20078;-70
2022/11/15 03:34:10;;;;;;;19.45;11.90;;;8.40;99.90;;;;;;5157008;27;20090;-70
2022/11/15 03:36:38;;;;;;;18.65;11.88;;;8.80;99.90;;;;;;5156556;27;20051;-70
2022/11/15 03:39:07;;;;;;;20.70;12.00;;;9.10;99.90;;;;;;5157062;27;20051;-71
2022/11/15 03:41:43;;;;;;;19.55;12.32;;;8.60;99.90;;;;;;5156797;27;20053;-70
2022/11/15 03:44:22;;;;;;;21.08;11.85;;;8.40;99.90;;;;;;5157147;27;20363;-70
2022/11/15 03:47:03;;;;;;;20.75;12.57;;;8.60;99.90;;;;;;5137453;27;20482;-70
2022/11/15 03:49:34;;;;;;;20.58;12.55;;;8.60;99.90;;;;;;5156747;27;20050;-70
2022/11/15 03:52:01;;;;;;;22.55;12.93;;;8.40;99.90;;;;;;5156682;27;20050;-69
2022/11/15 03:54:27;;;;;;;23.23;12.70;;;8.20;99.90;;;;;;5138718;27;20050;-70
2022/11/15 03:56:52;;;;;;;23.00;13.25;;;8.80;99.90;;;;;;5156447;27;20045;-70
2022/11/15 03:59:18;;;;;;;23.58;12.75;;;8.50;99.90;;;;;;5156447;27;20462;-70
2022/11/15 04:01:44;;;;;;;27.55;13.60;;;8.50;99.90;;;;;;5156572;27;20046;-70
2022/11/15 04:04:09;;;;;;;28.40;14.23;;;8.60;99.90;;;;;;5156810;27;20490;-69
2022/11/15 04:06:35;;;;;;;22.98;13.15;;;8.70;99.90;;;;;;5156349;27;20042;-70
2022/11/15 04:09:01;;;;;;;25.40;13.13;;;8.80;99.90;;;;;;5120970;27;20043;-70
2022/11/15 04:11:26;;;;;;;26.58;13.82;;;8.50;99.90;;;;;;5156266;27;20045;-70
2022/11/15 04:13:52;;;;;;;25.92;13.40;;;8.50;99.90;;;;;;5156119;27;20397;-70
2022/11/15 04:16:18;;;;;;;28.73;13.85;;;8.50;99.90;;;;;;5137358;27;20081;-70
2022/11/15 04:18:43;;;;;;;25.10;13.80;;;8.90;99.90;;;;;;5156119;27;20142;-69
2022/11/15 04:26:31;;;;;;;28.35;13.40;;;8.80;99.90;;;;;;5139353;27;20049;-70
2022/11/15 04:31:40;;;;;;;26.95;14.77;;;9.20;99.90;;;;;;5155831;27;20137;-70
2022/11/15 04:34:06;;;;;;;27.13;14.38;;;9.00;99.90;;;;;;5156197;27;20122;-70
2022/11/15 04:39:16;;;;;;;27.13;14.10;;;8.80;99.90;;;;;;5155265;27;20054;-70
2022/11/15 04:41:42;;;;;;;29.40;14.45;;;8.80;99.90;;;;;;5155678;27;20392;-70
2022/11/15 04:44:07;;;;;;;32.00;15.60;;;8.50;99.90;;;;;;5155643;27;20038;-70
2022/11/15 04:46:33;;;;;;;29.13;15.20;;;8.80;99.90;;;;;;5155258;27;20092;-70
2022/11/15 04:48:59;;;;;;;28.17;15.25;;;9.00;99.90;;;;;;5155625;27;20047;-69
2022/11/15 04:51:25;;;;;;;31.00;14.98;;;8.70;99.90;;;;;;5155582;27;20045;-70
2022/11/15 04:53:50;;;;;;;26.40;14.43;;;8.80;99.90;;;;;;5137058;27;20146;-69
2022/11/15 04:56:16;;;;;;;30.75;15.90;;;8.60;99.90;;;;;;5137165;27;20129;-70
2022/11/15 04:58:42;;;;;;;28.60;15.95;;;8.80;99.90;;;;;;5155472;27;20476;-70
2022/11/15 05:01:09;;;;;;;33.97;16.75;;;9.30;99.90;;;;;;5155433;27;20043;-69
2022/11/15 05:06:19;;;;;;;32.13;16.10;;;8.50;99.90;;;;;;5137246;27;20050;-70
2022/11/15 05:08:45;;;;;;;32.75;16.65;;;8.90;99.90;;;;;;5155313;27;20039;-70
2022/11/15 05:11:10;;;;;;;34.53;16.55;;;8.40;99.90;;;;;;5155260;27;20050;-70
2022/11/15 05:13:36;;;;;;;32.70;17.02;;;8.60;99.90;;;;;;5136747;27;20074;-70
2022/11/15 05:16:02;;;;;;;35.80;16.50;;;8.80;99.90;;;;;;5155215;27;20046;-70
2022/11/15 05:18:27;;;;;;;34.03;16.85;;;8.60;99.90;;;;;;5154593;27;20051;-70
2022/11/15 05:20:53;;;;;;;36.22;17.45;;;8.50;99.90;;;;;;5155246;27;20466;-70
2022/11/15 05:23:19;;;;;;;38.55;18.63;;;8.70;99.90;;;;;;5155266;27;20094;-69
2022/11/15 05:25:44;;;;;;;32.45;17.00;;;8.90;99.90;;;;;;5155153;27;20042;-69
2022/11/15 05:28:10;;;;;;;41.45;18.58;;;8.80;99.90;;;;;;5154814;27;20042;-70
2022/11/15 05:30:36;;;;;;;34.97;17.20;;;9.00;99.90;;;;;;5155122;27;20043;-70
2022/11/15 05:33:01;;;;;;;42.67;18.23;;;9.50;99.90;;;;;;5155183;27;20050;-70
2022/11/15 05:35:44;;;;;;;44.78;19.00;;;8.70;99.90;;;;;;5155169;27;20039;-70
2022/11/15 05:38:10;;;;;;;37.17;17.88;;;8.80;99.90;;;;;;5154603;27;20058;-69
2022/11/15 05:40:35;;;;;;;35.70;18.60;;;8.70;99.90;;;;;;5155103;27;20051;-70
2022/11/15 05:43:03;;;;;;;36.55;19.05;;;8.80;99.90;;;;;;5136957;27;20047;-70
2022/11/15 05:45:29;;;;;;;39.40;19.73;;;9.10;99.90;;;;;;5136465;27;20053;-69
2022/11/15 05:47:57;;;;;;;36.78;19.33;;;8.80;99.90;;;;;;5154445;27;20085;-70
2022/11/15 05:50:23;;;;;;;40.20;19.08;;;8.80;99.90;;;;;;5154906;27;20089;-70
2022/11/15 05:52:51;;;;;;;40.42;20.50;;;9.00;99.90;;;;;;5158208;27;20046;-70
2022/11/15 05:55:17;;;;;;;42.25;20.48;;;9.00;99.90;;;;;;5159364;27;20042;-69
2022/11/15 05:57:43;;;;;;;43.30;18.80;;;8.90;99.90;;;;;;5140368;27;20051;-70
2022/11/15 06:00:09;;;;;;;45.53;20.55;;;8.90;99.90;;;;;;5158829;27;20057;-71
2022/11/15 06:02:35;;;;;;;42.63;20.00;;;9.00;99.90;;;;;;5158814;27;20064;-70
2022/11/15 06:05:00;;;;;;;35.83;19.70;;;9.00;99.90;;;;;;5158842;27;20072;-70
2022/11/15 06:07:26;;;;;;;45.60;20.35;;;9.20;99.90;;;;;;5158652;27;20079;-70
2022/11/15 06:09:52;;;;;;;39.45;20.08;;;8.90;99.90;;;;;;5158927;27;20106;-70
2022/11/15 06:12:17;;;;;;;43.83;21.17;;;8.90;99.90;;;;;;5159083;27;20501;-70
2022/11/15 06:14:43;;;;;;;40.65;20.38;;;9.30;99.90;;;;;;5140256;27;20135;-69
2022/11/15 06:17:09;;;;;;;42.30;19.52;;;9.40;99.90;;;;;;5139729;27;20046;-70
2022/11/15 06:19:34;;;;;;;42.08;20.17;;;9.30;99.90;;;;;;5140408;27;20046;-70
2022/11/15 06:22:00;;;;;;;36.10;18.92;;;9.40;99.90;;;;;;5158409;27;20366;-70
2022/11/15 06:24:26;;;;;;;39.03;17.90;;;9.10;99.90;;;;;;5122847;27;20099;-70
2022/11/15 06:26:52;;;;;;;34.65;17.52;;;9.30;99.90;;;;;;5157714;27;20430;-70
2022/11/15 06:29:18;;;;;;;35.78;19.17;;;9.10;99.90;;;;;;5157949;27;20478;-70
2022/11/15 06:31:43;;;;;;;36.85;18.50;;;9.20;99.90;;;;;;5158137;27;20053;-70
2022/11/15 06:34:09;;;;;;;35.03;18.80;;;9.20;99.90;;;;;;5158150;27;20386;-70
2022/11/15 06:36:36;;;;;;;35.08;17.08;;;9.30;99.90;;;;;;5139211;27;20086;-70
2022/11/15 06:39:04;;;;;;;31.30;16.60;;;9.20;99.90;;;;;;5158443;27;20414;-70
2022/11/15 06:41:29;;;;;;;35.28;17.33;;;9.50;99.90;;;;;;5157642;27;20510;-70
2022/11/15 06:43:56;;;;;;;34.63;17.23;;;9.50;99.90;;;;;;5157956;27;20051;-70
2022/11/15 06:46:22;;;;;;;35.58;17.63;;;9.60;99.90;;;;;;5157899;27;20051;-70
2022/11/15 06:48:50;;;;;;;28.33;17.13;;;9.40;99.90;;;;;;5157260;27;20046;-70
2022/11/15 06:51:15;;;;;;;27.02;16.67;;;9.40;99.90;;;;;;5157759;27;20047;-70
2022/11/15 06:53:41;;;;;;;27.10;16.40;;;9.40;99.90;;;;;;5139254;27;20038;-70
2022/11/15 06:56:07;;;;;;;27.30;15.25;;;9.70;99.90;;;;;;5139244;27;20494;-69
2022/11/15 06:58:34;;;;;;;26.15;14.20;;;9.40;99.90;;;;;;5157359;27;20042;-70
2022/11/15 07:01:09;;;;;;;26.27;15.18;;;9.50;99.90;;;;;;5157566;27;20039;-70
2022/11/15 07:03:37;;;;;;;27.98;15.75;;;9.80;99.90;;;;;;5157206;27;20051;-70
2022/11/15 07:06:03;;;;;;;32.53;15.40;;;9.60;99.90;;;;;;5139116;27;20065;-70
2022/11/15 07:08:29;;;;;;;26.13;15.02;;;9.50;99.90;;;;;;5158000;27;20168;-70
2022/11/15 07:10:59;;;;;;;25.13;14.38;;;9.90;99.90;;;;;;5157459;27;20042;-70
2022/11/15 07:13:26;;;;;;;24.90;14.43;;;9.80;99.90;;;;;;5157447;27;20039;-70
2022/11/15 07:15:52;;;;;;;24.80;14.68;;;9.60;99.90;;;;;;5157343;27;20086;-70
2022/11/15 07:18:17;;;;;;;26.10;14.50;;;9.80;99.90;;;;;;5138216;27;20068;-70
2022/11/15 07:20:43;;;;;;;22.90;13.90;;;9.90;99.90;;;;;;5157258;27;20590;-69
2022/11/15 07:23:09;;;;;;;23.90;14.30;;;9.90;99.90;;;;;;5138771;27;20058;-70
2022/11/15 07:25:35;;;;;;;23.42;14.30;;;9.90;99.90;;;;;;5157130;27;20046;-69
2022/11/15 07:28:01;;;;;;;26.45;14.75;;;9.70;99.90;;;;;;5157172;27;20087;-69
2022/11/15 07:30:27;;;;;;;21.92;13.93;;;9.90;99.90;;;;;;5156811;27;20478;-70
2022/11/15 07:33:00;;;;;;;20.95;13.35;;;9.70;99.90;;;;;;5156947;27;20043;-70
2022/11/15 07:35:27;;;;;;;24.48;14.43;;;9.70;99.90;;;;;;5156966;27;20047;-69
2022/11/15 07:38:01;;;;;;;21.75;13.68;;;9.70;99.90;;;;;;5156367;27;20055;-70
2022/11/15 07:40:29;;;;;;;18.63;12.77;;;9.80;99.90;;;;;;5157158;27;20050;-70
2022/11/15 07:43:05;;;;;;;22.17;13.40;;;9.80;99.90;;;;;;5156744;27;20038;-70
2022/11/15 07:45:33;;;;;;;20.83;13.25;;;9.60;99.90;;;;;;5138649;27;20054;-70
2022/11/15 07:47:59;;;;;;;22.52;12.95;;;9.80;99.90;;;;;;5137864;27;20482;-70
2022/11/15 07:50:26;;;;;;;22.63;13.77;;;9.90;99.90;;;;;;5156513;27;20038;-70
2022/11/15 07:52:57;;;;;;;18.98;12.05;;;10.10;99.90;;;;;;5156653;27;20045;-70
2022/11/15 07:55:24;;;;;;;23.42;13.65;;;9.90;99.90;;;;;;5156200;27;20557;-70
2022/11/15 07:57:50;;;;;;;19.63;13.35;;;9.90;99.90;;;;;;5156355;27;20042;-70
2022/11/15 08:00:16;;;;;;;23.40;13.98;;;10.10;99.90;;;;;;5156399;27;20545;-70
2022/11/15 08:02:42;;;;;;;21.20;13.43;;;10.00;99.90;;;;;;5156763;27;20400;-70
2022/11/15 08:05:08;;;;;;;20.33;13.40;;;10.20;99.90;;;;;;5156394;27;20050;-70
2022/11/15 08:07:34;;;;;;;19.70;12.88;;;9.90;99.90;;;;;;5156263;27;20034;-70
2022/11/15 08:10:03;;;;;;;20.58;13.52;;;10.00;99.90;;;;;;5156237;27;20098;-70
2022/11/15 08:12:29;;;;;;;19.55;13.90;;;10.20;99.90;;;;;;5156180;27;20093;-70
2022/11/15 08:14:56;;;;;;;19.27;13.07;;;10.40;99.90;;;;;;5137143;27;20046;-70
2022/11/15 08:17:25;;;;;;;20.92;13.25;;;10.20;99.90;;;;;;5155811;27;20050;-70
2022/11/15 08:19:51;;;;;;;23.80;13.52;;;10.10;99.90;;;;;;5138014;27;20065;-70
2022/11/15 08:22:17;;;;;;;17.02;11.77;;;10.20;99.90;;;;;;5120652;27;20478;-70
2022/11/15 08:24:44;;;;;;;20.10;12.10;;;10.20;99.90;;;;;;5155971;27;20043;-70
2022/11/15 08:27:14;;;;;;;18.55;13.13;;;10.30;99.90;;;;;;5155904;27;20042;-70
2022/11/15 08:29:47;;;;;;;18.95;12.25;;;10.30;99.90;;;;;;5156415;27;20230;-70
2022/11/15 08:32:12;;;;;;;20.08;13.10;;;10.40;99.90;;;;;;5155837;27;20049;-70
2022/11/15 08:34:39;;;;;;;21.42;12.57;;;10.50;99.90;;;;;;5137633;27;20118;-70
2022/11/15 08:37:05;;;;;;;18.67;12.30;;;10.40;99.90;;;;;;5155435;27;20090;-70
2022/11/15 08:39:31;;;;;;;19.17;12.90;;;10.40;99.90;;;;;;5155840;27;20155;-70
2022/11/15 08:41:56;;;;;;;20.08;12.70;;;10.30;99.90;;;;;;5155702;27;20042;-70
2022/11/15 08:44:23;;;;;;;16.67;12.35;;;10.70;99.90;;;;;;5137087;27;20053;-70
2022/11/15 08:46:50;;;;;;;17.90;12.48;;;10.50;99.90;;;;;;5155135;27;20099;-70
2022/11/15 08:49:16;;;;;;;18.85;12.75;;;10.60;99.90;;;;;;5155470;27;20050;-70
2022/11/15 08:51:41;;;;;;;22.20;13.77;;;10.60;99.90;;;;;;5137025;27;20050;-70
2022/11/15 08:54:07;;;;;;;21.55;12.57;;;10.60;99.90;;;;;;5155515;27;20047;-70
2022/11/15 08:56:33;;;;;;;19.52;12.93;;;10.60;99.90;;;;;;5155529;27;20047;-70
2022/11/15 08:58:58;;;;;;;17.75;12.25;;;10.70;99.90;;;;;;5120315;27;20475;-69
2022/11/15 09:01:24;;;;;;;18.35;13.35;;;10.90;99.90;;;;;;5137366;27;20039;-70
2022/11/15 09:03:50;;;;;;;19.10;12.38;;;11.00;99.90;;;;;;5155502;27;20090;-70
2022/11/15 09:06:16;;;;;;;18.05;13.60;;;10.70;99.90;;;;;;5155543;27;20398;-69
2022/11/15 09:08:42;;;;;;;19.55;12.70;;;10.80;99.90;;;;;;5155981;27;20043;-71
2022/11/15 09:11:09;;;;;;;20.67;13.43;;;10.80;99.90;;;;;;5155141;27;20050;-68
2022/11/15 09:13:39;;;;;;;23.15;13.70;;;10.80;99.90;;;;;;5155434;27;20129;-68
2022/11/15 09:16:05;;;;;;;19.33;13.38;;;11.10;99.90;;;;;;5155413;27;20131;-68
2022/11/15 09:18:30;;;;;;;22.13;14.52;;;10.90;99.90;;;;;;5136433;27;20096;-68
2022/11/15 09:20:57;;;;;;;19.92;14.32;;;10.90;99.90;;;;;;5155341;27;20054;-68
2022/11/15 09:23:24;;;;;;;19.70;13.35;;;11.00;99.90;;;;;;5155279;27;20481;-68
2022/11/15 09:25:49;;;;;;;21.92;14.20;;;11.00;99.90;;;;;;5156984;27;20074;-69
2022/11/15 09:28:15;;;;;;;26.58;16.33;;;11.00;99.90;;;;;;5141488;27;20486;-69
2022/11/15 09:30:41;;;;;;;24.17;14.93;;;11.00;99.90;;;;;;5141011;27;20042;-70
2022/11/15 09:33:08;;;;;;;25.52;15.75;;;11.20;99.90;;;;;;5141422;27;20046;-70
2022/11/15 09:35:34;;;;;;;23.23;14.30;;;11.10;99.90;;;;;;5141778;27;20390;-71
2022/11/15 09:38:00;;;;;;;22.00;14.63;;;11.10;99.90;;;;;;5146828;27;20115;-71
2022/11/15 09:40:26;;;;;;;21.52;13.77;;;11.10;99.90;;;;;;5131280;27;20045;-71
2022/11/15 09:43:09;;;;;;;21.23;14.23;;;11.10;99.90;;;;;;5147888;27;20043;-71
2022/11/15 09:45:46;;;;;;;22.43;14.33;;;11.20;99.90;;;;;;5155698;27;20039;-71
2022/11/15 09:48:53;;;;;;;19.42;13.50;;;11.20;99.90;;;;;;5129801;27;20035;-70
2022/11/15 09:51:24;;;;;;;22.13;13.45;;;11.20;99.90;;;;;;5128386;27;20054;-72
2022/11/15 09:54:02;;;;;;;23.58;14.85;;;11.40;99.90;;;;;;5147510;27;20043;-73
2022/11/15 09:56:31;;;;;;;23.65;15.00;;;11.30;99.90;;;;;;5111499;27;20046;-72
2022/11/15 09:59:16;;;;;;;21.85;14.40;;;11.20;99.90;;;;;;5148019;27;20037;-72
2022/11/15 10:02:09;;;;;;;25.80;15.23;;;11.40;99.90;;;;;;5148586;27;20447;-72
2022/11/15 10:04:37;;;;;;;25.10;15.38;;;11.30;99.90;;;;;;5129425;27;20043;-73
2022/11/15 10:07:06;;;;;;;22.80;15.15;;;11.40;99.90;;;;;;5147070;27;20367;-72
2022/11/15 10:09:41;;;;;;;25.55;13.90;;;11.30;99.90;;;;;;5144664;27;20043;-71
2022/11/15 10:12:08;;;;;;;22.13;13.73;;;11.20;99.90;;;;;;5148721;27;20054;-70
2022/11/15 10:14:35;;;;;;;21.17;13.18;;;11.40;99.90;;;;;;5131360;27;20047;-70
2022/11/15 10:17:31;;;;;;;21.05;12.88;;;11.40;99.90;;;;;;5146358;27;20038;-70
2022/11/15 10:20:22;;;;;;;22.40;13.55;;;11.40;99.90;;;;;;5148899;27;20072;-70
2022/11/15 10:23:01;;;;;;;22.35;13.68;;;11.40;99.90;;;;;;5148444;27;20047;-70
2022/11/15 10:25:29;;;;;;;22.80;13.93;;;11.40;99.90;;;;;;5148818;27;20423;-70
2022/11/15 10:28:06;;;;;;;21.92;13.70;;;11.40;99.90;;;;;;5147624;27;20034;-71
2022/11/15 10:30:44;;;;;;;22.73;13.85;;;11.50;99.90;;;;;;5154037;27;20371;-71
2022/11/15 10:33:26;;;;;;;23.30;13.38;;;11.30;99.90;;;;;;5128400;27;20122;-70
2022/11/15 10:36:18;;;;;;;21.85;13.23;;;11.40;99.90;;;;;;5146172;27;20114;-70
2022/11/15 10:38:50;;;;;;;21.45;13.20;;;11.30;99.90;;;;;;5128804;27;20769;-70
2022/11/15 10:41:18;;;;;;;17.83;12.85;;;11.60;99.90;;;;;;5127228;27;20050;-70
2022/11/15 10:43:45;;;;;;;17.92;12.68;;;11.30;99.90;;;;;;5148236;27;20046;-71
2022/11/15 10:46:22;;;;;;;18.75;12.57;;;11.40;99.90;;;;;;5146138;27;20046;-71
2022/11/15 10:48:48;;;;;;;23.58;14.40;;;11.70;99.90;;;;;;5127251;27;20039;-71
2022/11/15 10:51:29;;;;;;;19.05;12.88;;;11.40;99.90;;;;;;5147146;27;20050;-70
2022/11/15 10:53:57;;;;;;;18.05;12.50;;;11.30;99.90;;;;;;5128564;27;20050;-70
2022/11/15 10:56:26;;;;;;;20.95;14.82;;;11.70;99.90;;;;;;5109495;27;20137;-71
2022/11/15 10:58:55;;;;;;;19.00;12.52;;;11.40;99.90;;;;;;5147101;27;20046;-71
2022/11/15 11:01:26;;;;;;;21.67;14.20;;;11.40;99.90;;;;;;5146672;27;20059;-72
2022/11/15 11:04:01;;;;;;;18.85;13.88;;;11.80;99.90;;;;;;5145587;27;20121;-74
2022/11/15 11:06:27;;;;;;;19.38;13.88;;;11.40;99.90;;;;;;5144645;27;20046;-72
2022/11/15 11:08:58;;;;;;;20.00;13.70;;;11.60;99.90;;;;;;5144301;27;20038;-72
2022/11/15 11:11:25;;;;;;;23.30;14.23;;;11.80;99.90;;;;;;5126707;27;20478;-72
2022/11/15 11:13:52;;;;;;;21.73;14.50;;;11.30;99.90;;;;;;5144822;27;20042;-72
2022/11/15 11:16:32;;;;;;;18.88;13.05;;;11.60;99.90;;;;;;5145671;27;20401;-72
2022/11/15 11:19:06;;;;;;;17.23;12.23;;;11.40;99.90;;;;;;5153168;27;20031;-72
2022/11/15 11:22:05;;;;;;;19.60;13.60;;;11.50;99.90;;;;;;5126803;27;20134;-72
2022/11/15 11:24:44;;;;;;;17.30;12.55;;;11.50;99.90;;;;;;5114298;27;20063;-72
2022/11/15 11:27:25;;;;;;;19.50;12.60;;;11.40;99.90;;;;;;5125892;27;20043;-72
2022/11/15 11:30:02;;;;;;;17.40;12.05;;;11.40;99.90;;;;;;5125577;27;20074;-71
2022/11/15 11:32:38;;;;;;;19.48;12.65;;;11.70;99.90;;;;;;5146692;27;20070;-72
2022/11/15 11:35:26;;;;;;;18.20;13.07;;;11.50;99.90;;;;;;5128341;27;20051;-71
2022/11/15 11:38:13;;;;;;;17.60;13.02;;;11.50;99.90;;;;;;5144489;27;20090;-72
2022/11/15 11:40:51;;;;;;;18.83;13.02;;;11.50;99.90;;;;;;5145777;27;20035;-72
2022/11/15 11:43:41;;;;;;;18.80;13.18;;;11.50;99.90;;;;;;5127245;27;20039;-71
2022/11/15 11:46:41;;;;;;;16.55;12.70;;;11.50;99.90;;;;;;5146132;27;20121;-71
2022/11/15 11:49:15;;;;;;;18.65;12.63;;;11.50;99.90;;;;;;5145011;27;20053;-71
2022/11/15 11:51:52;;;;;;;18.83;12.85;;;11.60;99.90;;;;;;5146020;27;20047;-71
2022/11/15 11:54:22;;;;;;;18.08;13.10;;;11.80;99.90;;;;;;5127648;27;20043;-71
2022/11/15 11:56:50;;;;;;;18.52;13.50;;;11.90;99.90;;;;;;5125705;27;20399;-72
2022/11/15 11:59:43;;;;;;;18.55;13.80;;;11.60;99.90;;;;;;5126985;27;20401;-73
2022/11/15 12:02:33;;;;;;;17.20;13.68;;;11.80;99.90;;;;;;5127902;27;20045;-71
2022/11/15 12:05:22;;;;;;;17.52;13.43;;;11.60;99.90;;;;;;5144394;27;20058;-72
2022/11/15 12:07:49;;;;;;;17.70;13.10;;;11.70;99.90;;;;;;5116641;27;20364;-71
2022/11/15 12:10:18;;;;;;;17.33;13.00;;;12.00;99.90;;;;;;5145302;27;20035;-71
2022/11/15 12:13:09;;;;;;;17.92;12.88;;;11.70;99.90;;;;;;5127333;27;20126;-72
2022/11/15 12:15:52;;;;;;;16.08;10.90;;;11.80;99.90;;;;;;5128695;27;20047;-72
2022/11/15 12:18:18;;;;;;;12.82;10.32;;;12.00;99.90;;;;;;5124294;27;20039;-72
2022/11/15 12:20:56;;;;;;;13.77;9.80;;;11.80;99.90;;;;;;5127256;27;20043;-72
2022/11/15 12:23:28;;;;;;;12.68;9.57;;;11.70;99.90;;;;;;5145290;27;20074;-72
2022/11/15 12:26:32;;;;;;;11.93;8.85;;;11.80;99.90;;;;;;5144283;27;20047;-72
2022/11/15 12:29:02;;;;;;;13.90;9.90;;;11.80;99.90;;;;;;5125549;27;20042;-71
2022/11/15 12:31:34;;;;;;;13.00;8.93;;;11.70;99.90;;;;;;5125327;27;20039;-72
2022/11/15 12:34:03;;;;;;;10.27;8.55;;;11.70;99.90;;;;;;5144211;27;20053;-72
2022/11/15 12:36:38;;;;;;;12.48;8.70;;;11.80;99.90;;;;;;5145467;27;20046;-72
2022/11/15 12:39:11;;;;;;;10.30;7.03;;;11.70;99.90;;;;;;5145471;27;20097;-72
2022/11/15 12:42:01;;;;;;;7.53;6.68;;;11.80;99.90;;;;;;5144285;27;20465;-71
2022/11/15 12:44:35;;;;;;;7.80;4.90;;;11.80;99.90;;;;;;5144413;27;20096;-70
2022/11/15 12:47:25;;;;;;;9.13;5.88;;;11.80;99.90;;;;;;5144130;27;20512;-72
2022/11/15 12:49:51;;;;;;;6.25;3.33;;;11.80;99.90;;;;;;5128014;27;20046;-71
2022/11/15 12:52:18;;;;;;;5.82;3.90;;;11.80;99.90;;;;;;5126218;27;20430;-71
2022/11/15 12:54:52;;;;;;;7.40;3.95;;;11.90;99.90;;;;;;5145299;27;20047;-72
2022/11/15 12:57:32;;;;;;;5.38;3.50;;;11.70;99.90;;;;;;5124293;27;20049;-71
2022/11/15 13:00:26;;;;;;;5.97;3.35;;;11.80;99.90;;;;;;5123742;27;20438;-71
2022/11/15 13:03:32;;;;;;;6.22;3.05;;;11.80;99.90;;;;;;5145220;27;20050;-71
2022/11/15 13:05:59;;;;;;;5.20;3.88;;;11.70;99.90;;;;;;5143065;27;20498;-71
2022/11/15 13:08:43;;;;;;;4.88;3.30;;;11.70;99.90;;;;;;5142986;27;20043;-71